sensor_id;sensor_type;location;lat;lon;timestamp;pressure;altitude;pressure_sealevel;temperature;humidity
61805;BME280;47725;47.912;7.356;2024-02-23T00:00:54;97550.90;;;11.42;48.87
61805;BME280;47725;47.912;7.356;2024-02-23T00:04:54;97556.58;;;11.36;49.15
61805;BME280;47725;47.912;7.356;2024-02-23T00:08:54;97562.08;;;11.32;48.63
61805;BME280;47725;47.912;7.356;2024-02-23T00:12:54;97566.91;;;11.26;48.90
61805;BME280;47725;47.912;7.356;2024-02-23T00:16:54;97574.45;;;11.22;48.61
61805;BME280;47725;47.912;7.356;2024-02-23T00:20:54;97579.63;;;11.20;48.63
61805;BME280;47725;47.912;7.356;2024-02-23T00:24:54;97584.91;;;11.16;48.96
61805;BME280;47725;47.912;7.356;2024-02-23T00:28:54;97592.42;;;11.14;49.09
61805;BME280;47725;47.912;7.356;2024-02-23T00:32:54;97596.92;;;11.12;49.23
61805;BME280;47725;47.912;7.356;2024-02-23T00:36:54;97598.61;;;11.12;49.51
61805;BME280;47725;47.912;7.356;2024-02-23T00:40:54;97599.03;;;11.12;49.77
61805;BME280;47725;47.912;7.356;2024-02-23T00:44:54;97602.68;;;11.13;49.50
61805;BME280;47725;47.912;7.356;2024-02-23T00:48:54;97610.96;;;11.14;49.90
61805;BME280;47725;47.912;7.356;2024-02-23T00:52:54;97621.61;;;11.13;50.25
61805;BME280;47725;47.912;7.356;2024-02-23T00:56:54;97631.10;;;11.10;50.63
61805;BME280;47725;47.912;7.356;2024-02-23T01:00:54;97634.74;;;11.06;50.79
61805;BME280;47725;47.912;7.356;2024-02-23T01:04:54;97640.24;;;11.03;50.99
61805;BME280;47725;47.912;7.356;2024-02-23T01:08:54;97645.54;;;11.00;50.63
61805;BME280;47725;47.912;7.356;2024-02-23T01:12:54;97650.97;;;10.98;50.68
61805;BME280;47725;47.912;7.356;2024-02-23T01:16:54;97655.61;;;10.96;51.06
61805;BME280;47725;47.912;7.356;2024-02-23T01:20:55;97656.95;;;10.93;51.44
61805;BME280;47725;47.912;7.356;2024-02-23T01:24:54;97658.31;;;10.90;51.40
61805;BME280;47725;47.912;7.356;2024-02-23T01:28:54;97658.04;;;10.87;51.28
61805;BME280;47725;47.912;7.356;2024-02-23T01:32:54;97656.56;;;10.82;51.53
61805;BME280;47725;47.912;7.356;2024-02-23T01:36:54;97654.30;;;10.79;51.68
61805;BME280;47725;47.912;7.356;2024-02-23T01:40:54;97653.23;;;10.76;51.80
61805;BME280;47725;47.912;7.356;2024-02-23T01:44:54;97652.25;;;10.73;51.82
61805;BME280;47725;47.912;7.356;2024-02-23T01:48:54;97649.10;;;10.70;51.68
61805;BME280;47725;47.912;7.356;2024-02-23T01:52:54;97644.78;;;10.67;51.79
61805;BME280;47725;47.912;7.356;2024-02-23T01:56:54;97640.34;;;10.63;51.97
61805;BME280;47725;47.912;7.356;2024-02-23T02:00:54;97637.25;;;10.61;51.91
61805;BME280;47725;47.912;7.356;2024-02-23T02:04:54;97637.72;;;10.59;51.91
61805;BME280;47725;47.912;7.356;2024-02-23T02:08:54;97637.48;;;10.58;51.42
61805;BME280;47725;47.912;7.356;2024-02-23T02:12:54;97637.62;;;10.59;50.30
61805;BME280;47725;47.912;7.356;2024-02-23T02:16:54;97636.53;;;10.57;50.20
61805;BME280;47725;47.912;7.356;2024-02-23T02:20:54;97636.50;;;10.53;50.18
61805;BME280;47725;47.912;7.356;2024-02-23T02:24:54;97634.06;;;10.51;50.61
61805;BME280;47725;47.912;7.356;2024-02-23T02:28:54;97630.06;;;10.51;50.55
61805;BME280;47725;47.912;7.356;2024-02-23T02:32:54;97626.14;;;10.52;50.38
61805;BME280;47725;47.912;7.356;2024-02-23T02:36:54;97621.58;;;10.51;50.47
61805;BME280;47725;47.912;7.356;2024-02-23T02:40:54;97616.96;;;10.44;51.19
61805;BME280;47725;47.912;7.356;2024-02-23T02:44:54;97611.70;;;10.39;51.32
61805;BME280;47725;47.912;7.356;2024-02-23T02:48:54;97605.16;;;10.34;51.78
61805;BME280;47725;47.912;7.356;2024-02-23T02:52:54;97596.78;;;10.28;51.75
61805;BME280;47725;47.912;7.356;2024-02-23T02:56:54;97588.51;;;10.21;51.68
61805;BME280;47725;47.912;7.356;2024-02-23T03:00:54;97581.95;;;10.15;51.10
61805;BME280;47725;47.912;7.356;2024-02-23T03:04:54;97574.30;;;10.10;50.84
61805;BME280;47725;47.912;7.356;2024-02-23T03:08:54;97568.30;;;10.05;50.75
61805;BME280;47725;47.912;7.356;2024-02-23T03:12:54;97563.23;;;10.01;50.27
61805;BME280;47725;47.912;7.356;2024-02-23T03:16:54;97559.30;;;9.96;50.48
61805;BME280;47725;47.912;7.356;2024-02-23T03:20:54;97555.76;;;9.92;50.79
61805;BME280;47725;47.912;7.356;2024-02-23T03:24:54;97552.37;;;9.89;50.92
61805;BME280;47725;47.912;7.356;2024-02-23T03:28:54;97548.97;;;9.87;50.91
61805;BME280;47725;47.912;7.356;2024-02-23T03:32:54;97544.70;;;9.85;50.75
61805;BME280;47725;47.912;7.356;2024-02-23T03:36:54;97542.60;;;9.83;50.38
61805;BME280;47725;47.912;7.356;2024-02-23T03:40:54;97542.08;;;9.83;49.50
61805;BME280;47725;47.912;7.356;2024-02-23T03:44:54;97543.53;;;9.82;49.87
61805;BME280;47725;47.912;7.356;2024-02-23T03:48:54;97543.78;;;9.81;49.82
61805;BME280;47725;47.912;7.356;2024-02-23T03:52:54;97541.63;;;9.80;50.12
61805;BME280;47725;47.912;7.356;2024-02-23T03:56:53;97541.50;;;9.79;50.01
61805;BME280;47725;47.912;7.356;2024-02-23T04:00:53;97539.45;;;9.78;49.67
61805;BME280;47725;47.912;7.356;2024-02-23T04:04:54;97537.16;;;9.76;49.61
61805;BME280;47725;47.912;7.356;2024-02-23T04:08:53;97533.98;;;9.74;49.02
61805;BME280;47725;47.912;7.356;2024-02-23T04:12:53;97533.63;;;9.74;49.16
61805;BME280;47725;47.912;7.356;2024-02-23T04:16:53;97534.28;;;9.74;49.55
61805;BME280;47725;47.912;7.356;2024-02-23T04:20:53;97535.19;;;9.74;49.62
61805;BME280;47725;47.912;7.356;2024-02-23T04:24:53;97536.70;;;9.73;49.93
61805;BME280;47725;47.912;7.356;2024-02-23T04:28:53;97538.48;;;9.71;49.85
61805;BME280;47725;47.912;7.356;2024-02-23T04:32:53;97540.39;;;9.70;49.43
61805;BME280;47725;47.912;7.356;2024-02-23T04:36:54;97540.98;;;9.70;49.12
61805;BME280;47725;47.912;7.356;2024-02-23T04:40:53;97538.31;;;9.72;48.78
61805;BME280;47725;47.912;7.356;2024-02-23T04:44:53;97536.39;;;9.74;48.44
61805;BME280;47725;47.912;7.356;2024-02-23T04:48:53;97534.95;;;9.74;48.49
61805;BME280;47725;47.912;7.356;2024-02-23T04:52:53;97534.79;;;9.74;48.14
61805;BME280;47725;47.912;7.356;2024-02-23T04:56:53;97534.91;;;9.73;48.11
61805;BME280;47725;47.912;7.356;2024-02-23T05:00:53;97537.03;;;9.73;48.14
61805;BME280;47725;47.912;7.356;2024-02-23T05:04:53;97539.71;;;9.72;48.34
61805;BME280;47725;47.912;7.356;2024-02-23T05:08:53;97542.42;;;9.71;48.36
61805;BME280;47725;47.912;7.356;2024-02-23T05:12:53;97545.94;;;9.70;48.50
61805;BME280;47725;47.912;7.356;2024-02-23T05:16:53;97548.60;;;9.69;48.45
61805;BME280;47725;47.912;7.356;2024-02-23T05:20:53;97548.88;;;9.68;48.63
61805;BME280;47725;47.912;7.356;2024-02-23T05:24:53;97548.46;;;9.66;49.04
61805;BME280;47725;47.912;7.356;2024-02-23T05:28:53;97549.24;;;9.62;49.66
61805;BME280;47725;47.912;7.356;2024-02-23T05:32:53;97549.81;;;9.57;50.11
61805;BME280;47725;47.912;7.356;2024-02-23T05:36:53;97549.35;;;9.53;50.39
61805;BME280;47725;47.912;7.356;2024-02-23T05:40:53;97547.94;;;9.48;50.55
61805;BME280;47725;47.912;7.356;2024-02-23T05:44:53;97546.08;;;9.42;50.89
61805;BME280;47725;47.912;7.356;2024-02-23T05:48:53;97545.00;;;9.36;51.13
61805;BME280;47725;47.912;7.356;2024-02-23T05:52:53;97545.72;;;9.28;51.52
61805;BME280;47725;47.912;7.356;2024-02-23T05:56:53;97546.73;;;9.20;51.86
61805;BME280;47725;47.912;7.356;2024-02-23T06:00:53;97548.14;;;9.12;51.93
61805;BME280;47725;47.912;7.356;2024-02-23T06:04:53;97550.03;;;9.06;51.97
61805;BME280;47725;47.912;7.356;2024-02-23T06:08:53;97552.86;;;8.99;52.40
61805;BME280;47725;47.912;7.356;2024-02-23T06:12:53;97554.78;;;8.95;51.95
61805;BME280;47725;47.912;7.356;2024-02-23T06:16:53;97555.80;;;8.92;51.85
61805;BME280;47725;47.912;7.356;2024-02-23T06:20:53;97555.17;;;8.89;51.87
61805;BME280;47725;47.912;7.356;2024-02-23T06:24:53;97555.66;;;8.87;51.76
61805;BME280;47725;47.912;7.356;2024-02-23T06:28:53;97556.43;;;8.85;51.82
61805;BME280;47725;47.912;7.356;2024-02-23T06:32:53;97557.23;;;8.84;51.84
61805;BME280;47725;47.912;7.356;2024-02-23T06:36:53;97558.51;;;8.82;52.00
61805;BME280;47725;47.912;7.356;2024-02-23T06:40:53;97559.44;;;8.81;52.11
61805;BME280;47725;47.912;7.356;2024-02-23T06:44:53;97560.96;;;8.80;52.28
61805;BME280;47725;47.912;7.356;2024-02-23T06:48:53;97562.33;;;8.79;52.28
61805;BME280;47725;47.912;7.356;2024-02-23T06:52:53;97564.04;;;8.76;52.69
61805;BME280;47725;47.912;7.356;2024-02-23T06:56:53;97567.92;;;8.68;53.24
61805;BME280;47725;47.912;7.356;2024-02-23T07:00:53;97573.19;;;8.61;53.50
61805;BME280;47725;47.912;7.356;2024-02-23T07:04:53;97576.26;;;8.54;53.66
61805;BME280;47725;47.912;7.356;2024-02-23T07:08:53;97576.59;;;8.50;53.89
61805;BME280;47725;47.912;7.356;2024-02-23T07:12:53;97577.29;;;8.48;53.50
61805;BME280;47725;47.912;7.356;2024-02-23T07:16:53;97579.18;;;8.47;53.47
61805;BME280;47725;47.912;7.356;2024-02-23T07:20:53;97582.34;;;8.46;53.54
61805;BME280;47725;47.912;7.356;2024-02-23T07:24:53;97585.58;;;8.45;53.62
61805;BME280;47725;47.912;7.356;2024-02-23T07:28:53;97586.80;;;8.46;53.56
61805;BME280;47725;47.912;7.356;2024-02-23T07:32:53;97588.17;;;8.50;53.08
61805;BME280;47725;47.912;7.356;2024-02-23T07:36:53;97589.42;;;8.54;53.11
61805;BME280;47725;47.912;7.356;2024-02-23T07:40:53;97590.98;;;8.58;53.04
61805;BME280;47725;47.912;7.356;2024-02-23T07:44:53;97593.02;;;8.60;53.37
61805;BME280;47725;47.912;7.356;2024-02-23T07:48:53;97594.41;;;8.65;52.83
61805;BME280;47725;47.912;7.356;2024-02-23T07:52:53;97596.64;;;8.74;52.55
61805;BME280;47725;47.912;7.356;2024-02-23T07:56:53;97597.41;;;8.76;53.08
61805;BME280;47725;47.912;7.356;2024-02-23T08:00:53;97596.67;;;8.80;53.25
61805;BME280;47725;47.912;7.356;2024-02-23T08:04:53;97594.84;;;8.85;53.26
61805;BME280;47725;47.912;7.356;2024-02-23T08:08:53;97594.29;;;8.92;53.19
61805;BME280;47725;47.912;7.356;2024-02-23T08:12:53;97593.27;;;9.00;53.08
61805;BME280;47725;47.912;7.356;2024-02-23T08:16:53;97592.30;;;9.11;52.89
61805;BME280;47725;47.912;7.356;2024-02-23T08:20:53;97592.55;;;9.23;52.53
61805;BME280;47725;47.912;7.356;2024-02-23T08:24:53;97592.16;;;9.36;52.16
61805;BME280;47725;47.912;7.356;2024-02-23T08:28:53;97591.67;;;9.49;51.63
61805;BME280;47725;47.912;7.356;2024-02-23T08:32:53;97590.14;;;9.65;51.26
61805;BME280;47725;47.912;7.356;2024-02-23T08:36:53;97588.64;;;9.81;50.48
61805;BME280;47725;47.912;7.356;2024-02-23T08:40:53;97587.58;;;9.96;50.02
61805;BME280;47725;47.912;7.356;2024-02-23T08:44:53;97586.02;;;10.07;50.21
61805;BME280;47725;47.912;7.356;2024-02-23T08:48:53;97583.92;;;10.17;48.47
61805;BME280;47725;47.912;7.356;2024-02-23T08:52:53;97583.20;;;10.25;49.56
61805;BME280;47725;47.912;7.356;2024-02-23T08:56:53;97580.24;;;10.33;49.56
61805;BME280;47725;47.912;7.356;2024-02-23T09:00:53;97577.62;;;10.42;49.06
61805;BME280;47725;47.912;7.356;2024-02-23T09:04:53;97575.20;;;10.51;49.33
61805;BME280;47725;47.912;7.356;2024-02-23T09:08:53;97574.17;;;10.62;47.98
61805;BME280;47725;47.912;7.356;2024-02-23T09:12:53;97572.72;;;10.72;48.43
61805;BME280;47725;47.912;7.356;2024-02-23T09:16:53;97570.92;;;10.82;47.74
61805;BME280;47725;47.912;7.356;2024-02-23T09:20:53;97567.28;;;10.93;47.46
61805;BME280;47725;47.912;7.356;2024-02-23T09:24:53;97563.76;;;11.05;47.59
61805;BME280;47725;47.912;7.356;2024-02-23T09:28:53;97561.21;;;11.19;45.87
61805;BME280;47725;47.912;7.356;2024-02-23T09:32:53;97559.72;;;11.35;45.88
61805;BME280;47725;47.912;7.356;2024-02-23T09:36:53;97557.51;;;11.48;46.41
61805;BME280;47725;47.912;7.356;2024-02-23T09:40:53;97554.96;;;11.56;46.14
61805;BME280;47725;47.912;7.356;2024-02-23T09:44:57;97552.22;;;11.60;45.81
61805;BME280;47725;47.912;7.356;2024-02-23T09:48:53;97547.96;;;11.66;45.84
61805;BME280;47725;47.912;7.356;2024-02-23T09:52:53;97543.55;;;11.74;45.05
61805;BME280;47725;47.912;7.356;2024-02-23T09:56:53;97536.55;;;11.86;45.76
61805;BME280;47725;47.912;7.356;2024-02-23T10:00:53;97528.75;;;12.10;43.98
61805;BME280;47725;47.912;7.356;2024-02-23T10:04:53;97522.36;;;12.48;42.94
61805;BME280;47725;47.912;7.356;2024-02-23T10:08:53;97515.52;;;12.92;40.65
61805;BME280;47725;47.912;7.356;2024-02-23T10:12:53;97510.66;;;13.46;39.10
61805;BME280;47725;47.912;7.356;2024-02-23T10:16:53;97507.20;;;14.07;37.00
61805;BME280;47725;47.912;7.356;2024-02-23T10:20:53;97503.16;;;14.64;37.09
61805;BME280;47725;47.912;7.356;2024-02-23T10:24:53;97499.75;;;15.13;36.64
61805;BME280;47725;47.912;7.356;2024-02-23T10:28:53;97498.27;;;15.56;36.04
61805;BME280;47725;47.912;7.356;2024-02-23T10:32:55;97496.98;;;16.09;35.08
61805;BME280;47725;47.912;7.356;2024-02-23T10:36:53;97494.03;;;16.63;34.46
61805;BME280;47725;47.912;7.356;2024-02-23T10:40:54;97491.93;;;16.88;36.34
61805;BME280;47725;47.912;7.356;2024-02-23T10:44:53;97491.48;;;16.78;37.26
61805;BME280;47725;47.912;7.356;2024-02-23T10:48:53;97494.75;;;16.53;38.67
61805;BME280;47725;47.912;7.356;2024-02-23T10:52:53;97495.42;;;16.47;36.41
61805;BME280;47725;47.912;7.356;2024-02-23T10:56:53;97493.17;;;16.84;33.72
61805;BME280;47725;47.912;7.356;2024-02-23T11:01:02;97490.36;;;17.32;32.57
61805;BME280;47725;47.912;7.356;2024-02-23T11:04:53;97484.97;;;17.67;33.75
61805;BME280;47725;47.912;7.356;2024-02-23T11:08:53;97479.63;;;17.80;33.44
61805;BME280;47725;47.912;7.356;2024-02-23T11:12:59;97474.95;;;17.72;34.40
61805;BME280;47725;47.912;7.356;2024-02-23T11:16:53;97471.73;;;17.57;35.00
61805;BME280;47725;47.912;7.356;2024-02-23T11:20:56;97469.50;;;17.36;35.39
61805;BME280;47725;47.912;7.356;2024-02-23T11:24:53;97468.58;;;17.11;35.12
61805;BME280;47725;47.912;7.356;2024-02-23T11:28:53;97466.64;;;16.85;35.23
61805;BME280;47725;47.912;7.356;2024-02-23T11:32:57;97465.20;;;16.59;36.21
61805;BME280;47725;47.912;7.356;2024-02-23T11:36:53;97464.01;;;16.38;36.50
61805;BME280;47725;47.912;7.356;2024-02-23T11:40:53;97462.58;;;16.24;35.72
61805;BME280;47725;47.912;7.356;2024-02-23T11:44:53;97460.80;;;16.12;36.20
61805;BME280;47725;47.912;7.356;2024-02-23T11:48:53;97459.83;;;16.06;35.88
61805;BME280;47725;47.912;7.356;2024-02-23T11:52:53;97458.67;;;16.05;35.27
61805;BME280;47725;47.912;7.356;2024-02-23T11:56:53;97458.11;;;16.05;35.12
61805;BME280;47725;47.912;7.356;2024-02-23T12:00:53;97456.50;;;16.04;35.07
61805;BME280;47725;47.912;7.356;2024-02-23T12:04:53;97454.22;;;16.02;35.11
61805;BME280;47725;47.912;7.356;2024-02-23T12:08:53;97452.25;;;15.98;34.06
61805;BME280;47725;47.912;7.356;2024-02-23T12:12:53;97451.03;;;15.90;35.69
61805;BME280;47725;47.912;7.356;2024-02-23T12:16:53;97450.22;;;15.83;34.88
61805;BME280;47725;47.912;7.356;2024-02-23T12:20:53;97450.33;;;15.74;34.63
61805;BME280;47725;47.912;7.356;2024-02-23T12:24:53;97450.71;;;15.60;35.61
61805;BME280;47725;47.912;7.356;2024-02-23T12:28:53;97450.81;;;15.44;35.41
61805;BME280;47725;47.912;7.356;2024-02-23T12:33:02;97449.66;;;15.30;35.84
61805;BME280;47725;47.912;7.356;2024-02-23T12:36:53;97448.22;;;15.15;35.50
61805;BME280;47725;47.912;7.356;2024-02-23T12:40:53;97446.84;;;15.04;35.44
61805;BME280;47725;47.912;7.356;2024-02-23T12:44:53;97443.97;;;14.92;36.32
61805;BME280;47725;47.912;7.356;2024-02-23T12:48:53;97441.85;;;14.80;36.39
61805;BME280;47725;47.912;7.356;2024-02-23T12:52:53;97439.43;;;14.68;36.30
61805;BME280;47725;47.912;7.356;2024-02-23T12:56:53;97437.94;;;14.64;36.59
61805;BME280;47725;47.912;7.356;2024-02-23T13:00:53;97436.06;;;14.69;36.39
61805;BME280;47725;47.912;7.356;2024-02-23T13:04:53;97436.80;;;14.81;36.45
61805;BME280;47725;47.912;7.356;2024-02-23T13:08:53;97436.41;;;14.92;36.14
61805;BME280;47725;47.912;7.356;2024-02-23T13:12:53;97435.88;;;14.98;36.44
61805;BME280;47725;47.912;7.356;2024-02-23T13:16:53;97433.84;;;15.04;35.68
61805;BME280;47725;47.912;7.356;2024-02-23T13:20:53;97431.76;;;15.07;36.18
61805;BME280;47725;47.912;7.356;2024-02-23T13:24:53;97428.70;;;15.10;36.66
61805;BME280;47725;47.912;7.356;2024-02-23T13:28:53;97423.95;;;15.12;35.33
61805;BME280;47725;47.912;7.356;2024-02-23T13:32:53;97420.17;;;15.11;34.85
61805;BME280;47725;47.912;7.356;2024-02-23T13:36:53;97417.27;;;15.10;35.09
61805;BME280;47725;47.912;7.356;2024-02-23T13:40:53;97413.84;;;15.09;35.71
61805;BME280;47725;47.912;7.356;2024-02-23T13:44:53;97408.95;;;15.13;35.60
61805;BME280;47725;47.912;7.356;2024-02-23T13:49:05;97403.36;;;15.16;35.25
61805;BME280;47725;47.912;7.356;2024-02-23T13:52:53;97397.38;;;15.18;35.34
61805;BME280;47725;47.912;7.356;2024-02-23T13:56:53;97392.64;;;15.18;34.94
61805;BME280;47725;47.912;7.356;2024-02-23T14:00:53;97388.22;;;15.16;34.42
61805;BME280;47725;47.912;7.356;2024-02-23T14:04:53;97385.33;;;15.07;34.97
61805;BME280;47725;47.912;7.356;2024-02-23T14:08:53;97383.28;;;14.97;35.66
61805;BME280;47725;47.912;7.356;2024-02-23T14:12:53;97382.26;;;14.89;35.17
61805;BME280;47725;47.912;7.356;2024-02-23T14:16:53;97380.45;;;14.80;35.66
61805;BME280;47725;47.912;7.356;2024-02-23T14:20:53;97378.16;;;14.72;35.04
61805;BME280;47725;47.912;7.356;2024-02-23T14:24:53;97375.74;;;14.64;35.64
61805;BME280;47725;47.912;7.356;2024-02-23T14:28:53;97372.99;;;14.55;35.80
61805;BME280;47725;47.912;7.356;2024-02-23T14:32:53;97369.83;;;14.49;36.06
61805;BME280;47725;47.912;7.356;2024-02-23T14:36:53;97366.35;;;14.44;36.42
61805;BME280;47725;47.912;7.356;2024-02-23T14:40:53;97363.90;;;14.42;36.36
61805;BME280;47725;47.912;7.356;2024-02-23T14:44:53;97361.39;;;14.40;35.72
61805;BME280;47725;47.912;7.356;2024-02-23T14:48:53;97358.97;;;14.40;35.83
61805;BME280;47725;47.912;7.356;2024-02-23T14:52:53;97356.35;;;14.47;35.18
61805;BME280;47725;47.912;7.356;2024-02-23T14:56:53;97353.83;;;14.55;35.21
61805;BME280;47725;47.912;7.356;2024-02-23T15:00:53;97351.68;;;14.57;35.55
61805;BME280;47725;47.912;7.356;2024-02-23T15:04:53;97348.25;;;14.56;35.64
61805;BME280;47725;47.912;7.356;2024-02-23T15:08:53;97345.21;;;14.61;35.93
61805;BME280;47725;47.912;7.356;2024-02-23T15:12:53;97341.39;;;14.75;35.19
61805;BME280;47725;47.912;7.356;2024-02-23T15:16:53;97337.44;;;14.88;35.38
61805;BME280;47725;47.912;7.356;2024-02-23T15:20:53;97335.72;;;14.92;35.58
61805;BME280;47725;47.912;7.356;2024-02-23T15:24:53;97335.47;;;14.90;35.60
61805;BME280;47725;47.912;7.356;2024-02-23T15:28:53;97334.56;;;14.86;36.00
61805;BME280;47725;47.912;7.356;2024-02-23T15:32:53;97333.29;;;14.80;36.26
61805;BME280;47725;47.912;7.356;2024-02-23T15:36:53;97330.22;;;14.75;36.54
61805;BME280;47725;47.912;7.356;2024-02-23T15:40:53;97326.65;;;14.71;36.48
61805;BME280;47725;47.912;7.356;2024-02-23T15:44:53;97322.85;;;14.65;36.82
61805;BME280;47725;47.912;7.356;2024-02-23T15:48:53;97319.13;;;14.61;36.84
61805;BME280;47725;47.912;7.356;2024-02-23T15:52:53;97317.77;;;14.56;36.98
61805;BME280;47725;47.912;7.356;2024-02-23T15:56:53;97315.06;;;14.50;36.74
61805;BME280;47725;47.912;7.356;2024-02-23T16:00:53;97312.91;;;14.43;36.93
61805;BME280;47725;47.912;7.356;2024-02-23T16:04:52;97311.91;;;14.37;36.48
61805;BME280;47725;47.912;7.356;2024-02-23T16:08:53;97310.58;;;14.31;36.48
61805;BME280;47725;47.912;7.356;2024-02-23T16:12:52;97309.47;;;14.22;36.98
61805;BME280;47725;47.912;7.356;2024-02-23T16:16:52;97309.78;;;14.15;36.82
61805;BME280;47725;47.912;7.356;2024-02-23T16:20:52;97309.77;;;14.07;36.95
61805;BME280;47725;47.912;7.356;2024-02-23T16:24:52;97310.50;;;14.00;37.12
61805;BME280;47725;47.912;7.356;2024-02-23T16:28:52;97310.71;;;13.91;37.39
61805;BME280;47725;47.912;7.356;2024-02-23T16:32:52;97310.53;;;13.83;37.59
61805;BME280;47725;47.912;7.356;2024-02-23T16:36:52;97311.55;;;13.79;37.68
61805;BME280;47725;47.912;7.356;2024-02-23T16:40:52;97312.81;;;13.76;37.72
61805;BME280;47725;47.912;7.356;2024-02-23T16:44:52;97312.97;;;13.78;37.10
61805;BME280;47725;47.912;7.356;2024-02-23T16:48:52;97313.51;;;13.77;37.60
61805;BME280;47725;47.912;7.356;2024-02-23T16:52:52;97314.65;;;13.70;37.84
61805;BME280;47725;47.912;7.356;2024-02-23T16:56:52;97315.69;;;13.62;38.24
61805;BME280;47725;47.912;7.356;2024-02-23T17:00:52;97317.13;;;13.54;38.41
61805;BME280;47725;47.912;7.356;2024-02-23T17:04:52;97318.38;;;13.46;38.31
61805;BME280;47725;47.912;7.356;2024-02-23T17:08:52;97321.88;;;13.37;38.47
61805;BME280;47725;47.912;7.356;2024-02-23T17:12:52;97323.75;;;13.29;38.59
61805;BME280;47725;47.912;7.356;2024-02-23T17:16:52;97326.33;;;13.21;38.76
61805;BME280;47725;47.912;7.356;2024-02-23T17:20:52;97327.80;;;13.15;38.75
61805;BME280;47725;47.912;7.356;2024-02-23T17:24:53;97327.33;;;13.10;38.87
61805;BME280;47725;47.912;7.356;2024-02-23T17:28:52;97326.05;;;13.06;39.03
61805;BME280;47725;47.912;7.356;2024-02-23T17:32:52;97326.62;;;13.01;39.11
61805;BME280;47725;47.912;7.356;2024-02-23T17:36:52;97329.16;;;12.94;39.63
61805;BME280;47725;47.912;7.356;2024-02-23T17:40:52;97331.57;;;12.87;39.77
61805;BME280;47725;47.912;7.356;2024-02-23T17:44:52;97332.81;;;12.78;39.94
61805;BME280;47725;47.912;7.356;2024-02-23T17:48:52;97334.23;;;12.73;39.56
61805;BME280;47725;47.912;7.356;2024-02-23T17:52:52;97336.27;;;12.68;39.50
61805;BME280;47725;47.912;7.356;2024-02-23T17:56:52;97337.50;;;12.65;39.47
61805;BME280;47725;47.912;7.356;2024-02-23T18:00:52;97338.09;;;12.62;39.43
61805;BME280;47725;47.912;7.356;2024-02-23T18:04:52;97339.25;;;12.61;39.34
61805;BME280;47725;47.912;7.356;2024-02-23T18:08:52;97339.81;;;12.61;39.22
61805;BME280;47725;47.912;7.356;2024-02-23T18:12:52;97341.53;;;12.61;39.21
61805;BME280;47725;47.912;7.356;2024-02-23T18:16:52;97344.70;;;12.61;39.18
61805;BME280;47725;47.912;7.356;2024-02-23T18:20:52;97348.79;;;12.61;39.23
61805;BME280;47725;47.912;7.356;2024-02-23T18:24:52;97350.90;;;12.61;39.60
61805;BME280;47725;47.912;7.356;2024-02-23T18:28:52;97353.19;;;12.61;39.56
61805;BME280;47725;47.912;7.356;2024-02-23T18:32:52;97355.53;;;12.60;39.69
61805;BME280;47725;47.912;7.356;2024-02-23T18:36:52;97357.19;;;12.60;39.65
61805;BME280;47725;47.912;7.356;2024-02-23T18:40:52;97359.30;;;12.58;39.95
61805;BME280;47725;47.912;7.356;2024-02-23T18:44:52;97360.19;;;12.58;39.93
61805;BME280;47725;47.912;7.356;2024-02-23T18:48:52;97362.08;;;12.57;40.32
61805;BME280;47725;47.912;7.356;2024-02-23T18:52:52;97363.53;;;12.53;40.60
61805;BME280;47725;47.912;7.356;2024-02-23T18:56:52;97364.20;;;12.50;40.78
61805;BME280;47725;47.912;7.356;2024-02-23T19:00:52;97362.87;;;12.48;40.45
61805;BME280;47725;47.912;7.356;2024-02-23T19:04:52;97361.03;;;12.44;40.80
61805;BME280;47725;47.912;7.356;2024-02-23T19:08:52;97358.84;;;12.39;40.83
61805;BME280;47725;47.912;7.356;2024-02-23T19:12:52;97357.72;;;12.35;40.83
61805;BME280;47725;47.912;7.356;2024-02-23T19:16:52;97356.14;;;12.31;40.98
61805;BME280;47725;47.912;7.356;2024-02-23T19:20:52;97355.33;;;12.26;41.24
61805;BME280;47725;47.912;7.356;2024-02-23T19:24:52;97354.69;;;12.21;41.34
61805;BME280;47725;47.912;7.356;2024-02-23T19:28:52;97355.63;;;12.16;41.52
61805;BME280;47725;47.912;7.356;2024-02-23T19:32:52;97356.69;;;12.12;41.42
61805;BME280;47725;47.912;7.356;2024-02-23T19:36:52;97357.82;;;12.07;41.51
61805;BME280;47725;47.912;7.356;2024-02-23T19:40:52;97360.08;;;12.03;41.74
61805;BME280;47725;47.912;7.356;2024-02-23T19:44:52;97365.04;;;12.00;41.78
61805;BME280;47725;47.912;7.356;2024-02-23T19:48:52;97369.93;;;11.96;41.96
61805;BME280;47725;47.912;7.356;2024-02-23T19:52:52;97377.08;;;11.92;42.28
61805;BME280;47725;47.912;7.356;2024-02-23T19:56:52;97387.62;;;11.89;42.56
61805;BME280;47725;47.912;7.356;2024-02-23T20:00:52;97402.59;;;11.83;44.45
61805;BME280;47725;47.912;7.356;2024-02-23T20:04:52;97414.86;;;11.74;45.60
61805;BME280;47725;47.912;7.356;2024-02-23T20:08:52;97429.16;;;11.63;47.24
61805;BME280;47725;47.912;7.356;2024-02-23T20:12:52;97436.19;;;11.48;47.74
61805;BME280;47725;47.912;7.356;2024-02-23T20:16:52;97440.03;;;11.32;48.26
61805;BME280;47725;47.912;7.356;2024-02-23T20:20:52;97440.16;;;11.19;47.90
61805;BME280;47725;47.912;7.356;2024-02-23T20:24:52;97439.72;;;11.10;47.74
61805;BME280;47725;47.912;7.356;2024-02-23T20:28:52;97440.80;;;11.03;47.80
61805;BME280;47725;47.912;7.356;2024-02-23T20:32:52;97441.50;;;10.98;48.12
61805;BME280;47725;47.912;7.356;2024-02-23T20:36:52;97437.70;;;10.93;48.14
61805;BME280;47725;47.912;7.356;2024-02-23T20:40:52;97433.51;;;10.89;48.09
61805;BME280;47725;47.912;7.356;2024-02-23T20:44:52;97430.08;;;10.88;48.38
61805;BME280;47725;47.912;7.356;2024-02-23T20:48:52;97426.20;;;10.88;48.08
61805;BME280;47725;47.912;7.356;2024-02-23T20:52:52;97424.39;;;10.89;48.07
61805;BME280;47725;47.912;7.356;2024-02-23T20:56:52;97422.97;;;10.94;47.66
61805;BME280;47725;47.912;7.356;2024-02-23T21:00:54;97423.32;;;10.93;47.91
61805;BME280;47725;47.912;7.356;2024-02-23T21:04:52;97424.50;;;10.91;48.30
61805;BME280;47725;47.912;7.356;2024-02-23T21:08:52;97426.07;;;10.92;47.53
61805;BME280;47725;47.912;7.356;2024-02-23T21:12:52;97429.03;;;10.85;48.78